Hayase Maru — JD2583 — position and weather

sailwx.info

Track history (hours):
 
Tides and Currents Weather Stations Pressure Air Temp Water Temp Dewpoint Dewpoint Depression Visibility Wind Speed Wind Dir Waves Ship Positions

Hayase Maru

Last reported at 2014-Dec-07 15:30 UTC. Time now 2014-Dec-18 07:26 UTC.
Position N 35°07' E 139°45'.
Warning: this ship's position is 10 days out of date.

; draft 4.1 m.

Type: Ship. MMSI: 431000395.

Date/timePositionNaut miles runAvg speedWind from/ knotsBaromVisibWave heightAir tempDewpointWater temp
2014-Dec-07 15:30N 35°07' E 139°45'1112.3
2014-Dec-07 14:33N 35°19' E 139°43'7 6.9
2014-Dec-07 13:31N 35°25' E 139°48'5 2.7
2014-Dec-07 11:29N 35°22' E 139°54'0 0.0
2014-Dec-07 08:14N 35°22' E 139°54'0 0.0
2014-Dec-07 05:26N 35°22' E 139°54'0 0.0
2014-Dec-07 04:14N 35°22' E 139°54'0 0.0
2014-Dec-07 03:32N 35°22' E 139°54'0 0.0
2014-Dec-07 02:32N 35°22' E 139°54'0 0.0
2014-Dec-07 01:29N 35°22' E 139°54'0 0.0
2014-Dec-06 22:23N 35°22' E 139°54'3 3.0
2014-Dec-06 21:31N 35°23' E 139°51'0 0.1
2014-Dec-06 20:31N 35°23' E 139°51'0 0.0
2014-Dec-06 19:31N 35°23' E 139°51'0 0.0
2014-Dec-06 17:31N 35°23' E 139°51'0 0.1
2014-Dec-06 16:19N 35°23' E 139°51'0 0.1
2014-Dec-06 15:19N 35°23' E 139°51'0 0.0
2014-Dec-06 14:25N 35°23' E 139°51'0 0.0
2014-Dec-06 06:25N 35°23' E 139°51'0 0.0
2014-Dec-06 05:13N 35°23' E 139°51'0 0.0
2014-Dec-05 22:31N 35°23' E 139°51'0 0.1
2014-Dec-05 21:31N 35°23' E 139°51'0 0.0
2014-Dec-05 18:25N 35°23' E 139°51'0 0.0
2014-Dec-05 17:04N 35°23' E 139°51'0 0.1
2014-Dec-05 16:10N 35°23' E 139°51'0 0.0
2014-Dec-05 08:25N 35°23' E 139°51'8 0.3
2014-Dec-04 03:13N 35°31' E 139°53'812.0
2014-Dec-04 02:33N 35°25' E 139°47'1110.9
2014-Dec-04 01:33N 35°14' E 139°47'  
Track history (hours):
 
Tides and Currents Weather Stations Pressure Air Temp Water Temp Dewpoint Dewpoint Depression Visibility Wind Speed Wind Dir Waves Ship Positions

Hayase Maru

Last reported at 2014-Dec-07 15:30 UTC. Time now 2014-Dec-18 07:26 UTC.
Position N 35°07' E 139°45'.
Warning: this ship's position is 10 days out of date.

; draft 4.1 m.

Type: Ship. MMSI: 431000395.

Date/timePositionNaut miles runAvg speedWind from/ knotsBaromVisibWave heightAir tempDewpointWater temp
2014-Dec-07 15:30N 35°07' E 139°45'1112.3
2014-Dec-07 14:33N 35°19' E 139°43'7 6.9
2014-Dec-07 13:31N 35°25' E 139°48'5 2.7
2014-Dec-07 11:29N 35°22' E 139°54'0 0.0
2014-Dec-07 08:14N 35°22' E 139°54'0 0.0
2014-Dec-07 05:26N 35°22' E 139°54'0 0.0
2014-Dec-07 04:14N 35°22' E 139°54'0 0.0
2014-Dec-07 03:32N 35°22' E 139°54'0 0.0
2014-Dec-07 02:32N 35°22' E 139°54'0 0.0
2014-Dec-07 01:29N 35°22' E 139°54'0 0.0
2014-Dec-06 22:23N 35°22' E 139°54'3 3.0
2014-Dec-06 21:31N 35°23' E 139°51'0 0.1
2014-Dec-06 20:31N 35°23' E 139°51'0 0.0
2014-Dec-06 19:31N 35°23' E 139°51'0 0.0
2014-Dec-06 17:31N 35°23' E 139°51'0 0.1
2014-Dec-06 16:19N 35°23' E 139°51'0 0.1
2014-Dec-06 15:19N 35°23' E 139°51'0 0.0
2014-Dec-06 14:25N 35°23' E 139°51'0 0.0
2014-Dec-06 06:25N 35°23' E 139°51'0 0.0
2014-Dec-06 05:13N 35°23' E 139°51'0 0.0
2014-Dec-05 22:31N 35°23' E 139°51'0 0.1
2014-Dec-05 21:31N 35°23' E 139°51'0 0.0
2014-Dec-05 18:25N 35°23' E 139°51'0 0.0
2014-Dec-05 17:04N 35°23' E 139°51'0 0.1
2014-Dec-05 16:10N 35°23' E 139°51'0 0.0
2014-Dec-05 08:25N 35°23' E 139°51'8 0.3
2014-Dec-04 03:13N 35°31' E 139°53'812.0
2014-Dec-04 02:33N 35°25' E 139°47'1110.9
2014-Dec-04 01:33N 35°14' E 139°47'  

Dump ship's entire track history